AirNav   Everest Fuels
 
 1073 users online  

WN29 Blue Ribbon Airport
Sequim, Washington, USA

GOING TO SEQUIM?


FAA INFORMATION EFFECTIVE 22 APRIL 2021

Location

FAA Identifier: WN29
Lat/Long: 48-07-48.9000N 123-12-19.8750W
48-07.815000N 123-12.331250W
48.1302500,-123.2055208
(estimated)
Elevation: 103 ft. / 31 m (estimated)
Variation: 21E (1985)
From city: 5 miles NW of SEQUIM, WA
Time zone: UTC -7 (UTC -8 during Standard Time)
Zip code: 98382

Airport Operations

Airport use: Private use. Permission required prior to landing
Activation date: 01/1983
Control tower: no
ARTCC: SEATTLE CENTER
FSS: SEATTLE FLIGHT SERVICE STATION
Attendance: UNATNDD
Wind indicator: yes
Segmented circle: no

Airport Communications

WX AWOS-3P at NOW (8 nm W): 118.325 (360-457-7529)
WX ASOS at CLM (12 nm W): 135.175 (360-457-1070)
WX AWOS-3P at 0S9 (16 nm E): 119.025 (360-379-1199)

Nearby radio navigation aids

VOR radial/distance  VOR name  Freq  Var
CVVr231/20.4PENN COVE VOR/DME117.2019E
YYJr146/37.5VICTORIA VOR/DME113.7017E
PAEr269/39.3PAINE VOR/DME110.6020E

 
NDB name  Hdg/Dist  Freq  Var  ID
EDIZ HOOK077/7.933817ENOW -. --- .--
FRIDAY HARBOR181/24.028417EFHR ..-. .... .-.
SKAGIT/BAY VIEW221/37.424016EBVS -... ...- ...

Airport Services

Runway Information

Runway 7/25

Dimensions: 1961 x 60 ft. / 598 x 18 m
Surface: turf, in good condition
RUNWAY 7  RUNWAY 25
Latitude: 48-07.815333N48-07.814667N
Longitude: 123-12.572167W123-12.090333W
Elevation: 103.0 ft.103.0 ft.
Traffic pattern: leftleft
Touchdown point: yes, no lightsyes, no lights

Airport Ownership and Management from official FAA records

Ownership: Privately-owned
Owner: BLUE RIBBON FARMS
PO BOX 3141
SEQUIM, WA 98382
Phone 3017882771
PROPERTY OWNERS ASSN., INC.
Manager: MARK CHENEY
118 GREYWOLF ROAD
SEQUIM, WA 98382
Phone 3017882771

Airport Operational Statistics

Aircraft based on the field: 11
Single engine airplanes: 10
Multi engine airplanes: 1
    

Additional Remarks

WILDLIFE (DEER) ON AND IN VCNTY OF ARPT, EAGLES AND SEAGULLS ALSO ON AND IN VCNTY OF ARPT.
FOR CD CTC SEATTLE ARTCC AT 253-351-3694.

Instrument Procedures

There are no published instrument procedures at WN29.

Some nearby airports with instrument procedures:

KNOW - Port Angeles Coast Guard Air Station Airport (8 nm W)
KCLM - William R Fairchild International Airport (12 nm W)
0S9 - Jefferson County International Airport (16 nm E)
KOKH - AJ Eisenberg Airport (22 nm E)
KFHR - Friday Harbor Airport (25 nm N)
 
Loc | Ops | Rwys | IFR | FBO | Links
Com | Nav | Svcs | Stats | Notes
Area around WN29 (Blue Ribbon Airport)
 
Road maps at: MapQuest Bing Google
 
Aerial photo
WARNING: Photo may not be current or correct
Aerial photo of WN29 (Blue Ribbon Airport)
Photo by Dave Woodcock, Greywolf Aerial Photography www.greywolfphotography.com
Taken in June 2005

Do you have a better or more recent aerial photo of Blue Ribbon Airport that you would like to share? If so, please send us your photo.

 
Sectional chart

 
Airport distance calculator
Flying to Blue Ribbon Airport? Find the distance to fly.

From to WN29

Sunrise and sunset
Times for 15-May-2021
 Local
(UTC-7)
 Zulu
(UTC)
Morning civil twilight04:5711:57
Sunrise05:3412:34
Sunset20:4403:44
Evening civil twilight21:2104:21

Current date and time
Zulu (UTC)  15-May-2021 15:08:43
Local (UTC-7)  15-May-2021 08:08:43
 
METAR
KCLM 
12nm W 
151453Z AUTO 00000KT 9SM SCT005 09/08 A3015 RMK AO2 SLP211 T00940078 53006
CWQK 
15nm NW 
151400Z AUTO 27011KT 09/ RMK AO1 SLP203 T0087 53009
KNOW 
16nm W 
151455Z AUTO 28007KT 10SM SCT006 10/08 A3015 RMK AO2 T00950082
K0S9 
16nm E 
151455Z AUTO 00000KT 10SM BKN003 09/09 A3013 RMK AO2
CWLM 
18nm N 
151400Z AUTO 07003KT 09/08 RMK AO1 SLP202 T00920083 51008
CYWH 
18nm N 
151400Z VRB02KT 15SM SKC 11/08 A3013 RMK FG DIST E-SW SLP205
CWPF 
19nm NW 
151445Z AUTO 16003KT 10/08 RMK AO1 SLP204 T00980080 52008
CWYJ 
19nm N 
151400Z AUTO 00000KT 09/09 RMK AO1 SLP203 T00920092 51007
TAF
KCLM 
12nm W 
151131Z 1512/1612 29006KT 6SM BR OVC003 FM151600 29004KT P6SM SCT005 FM151800 VRB04KT P6SM SKC FM160200 30012KT P6SM SKC FM161000 30007KT 6SM BR OVC002
CYWH 
18nm N 
151410Z 1514/1602 VRB03KT P6SM FEW005 FM151900 21007KT P6SM FEW025 RMK NXT FCST BY 152100Z
NOTAMs
Click for the latest NOTAMs
NOTAMs are issued by the DoD/FAA and will open in a separate window not controlled by AirNav.

 

 
 

Would you like to see your business listed on this page?

 If your business provides an interesting product or service to pilots, flight crews, aircraft, or users of the Blue Ribbon Airport, you should consider listing it here.  To start the listing process, click on the button below
 
Add a business
 

Other Pages about Blue Ribbon Airport

www.blueribbonfarmsassoc.com
 
Update a link
 
Copyright © AirNav, LLC. All rights reserved. Privacy Policy  Contact